Belleair, FL (33756)

5:33 PM EDT on August 24, 2016 (GMT -0400)
South Greenwood | | Change Station

Elev 40 ft 27.94 °N, 82.79 °W | Updated 1 second ago

Clear
Clear
91.8 °F
Feels Like 106 °F
N
1.0
Wind Variable Wind from ESE
Gusts 10.0 mph

Today
High -- | Low -- °F
--% Chance of Precip.
Yesterday
High -- | Low -- °F
Precip. -- in
Pressure 30.04 in
Visibility 10.0 miles
Clouds Clear
Heat Index 106 °F
Dew Point 77 °F
Humidity 63%
Rainfall 0.00 in
Snow Depth Not available.
7:06 AM 8:00 PM
Waning Gibbous, 53% visible
METAR KPIE 242053Z 07010KT 10SM CLR 31/24 A3004 RMK AO2 SLP173 60000 T03110244 58018
Pressure 30.04 in
Visibility 10.0 miles
Clouds Clear
Heat Index 106 °F
Dew Point 77 °F
Humidity 63%
Rainfall 0.00 in
Snow Depth Not available.
7:06 AM 8:00 PM
Waning Gibbous, 53% visible
METAR KPIE 242053Z 07010KT 10SM CLR 31/24 A3004 RMK AO2 SLP173 60000 T03110244 58018
A tropical disturbance we've monitored since last week, may have a dangerous future in store for the southeast U.S. and Gulf coasts this weekend into next week. The National Weather Service has issued a flash flood watch for Puerto Rico and the U.S. Virgin Islands. Rainfall totals of 2-4 inches (locally higher) are expected through Wednesday night in those areas.

The National Hurricane Center says this system has a medium to high chance of development into a tropical depression or tropical storm over the next 2 to 5 days. A tight consensus of our guidance suggests the disturbance should continue in a general west or west-northwest trajectory the next several days.

10-Day Weather Forecast

Almanac

Astronomy

Aug. 24, 2016 Rise Set
Actual Time
Civil Twilight
Nautical Twilight
Astronomical Twilight
Moon
Length of Visible Light
Length of Day
Tomorrow will be .
, % of the Moon is Illuminated

Today's Extremes

State Highs State Lows

Community

WunderPhotos

Upload Photos

1,934,720 photos uploaded!

WunderBlog® & News

Nearby

Air Quality

  Air Quality AQ Index Pollutant
Not available.

Snow Depth

Station Depth Elevation

Earthquake Activity

City Distance Mag. Time & Date
Minimum magnitude displayed is 2.5.

Coastal Water Temperatures

Place Temperature

Stations

Nearby Weather Stations

Station Location Temp. Windchill Dew Point Humidity Wind Precip. Elev Updated Type
                   

Watches & Warnings

There are currently no watches in effect.